Clarkston, Michigan
Current Conditions -  °F | °C
As of 8:53 PM on Friday 24 Oct 2014 (Local Time) from KPTK Reporting Station
Broken Clouds Broken Clouds  
Wind Chill: 55°   Ceiling: 4000
Heat Index: 55°   Visibility: 10mi
Dew Point: 45°   Wind: 8mph
Humidity: 69%   Direction: 220°SW
Pressure: 29.96"   Gusts: NA
Location:  42.74°N, 83.42°W
Report Text: KPTK 250053Z 22007KT 10SM BKN040 13/07 A2996 RMK AO2 SLP151 T01280072
Loading
Personal Weather Stations






























Interactive Weather Map New forecast layout! Learn more

10-Day Weather Forecast

Advertisements
Track Severe Weather on mobile